Goddard, KS (67052)

07:19 CDT le 28 juillet 2016 (GMT -0500)
Goddard North | | Change Station

Alt. 1473 ft 37.67 °N, 97.58 °W | Updated 2 minutes ago

Mostly Cloudy
Nuageux
75.7 ° F
Paraît 76 ° F
N
4.7
Vent Variable Vent de OSO

Aujourd'hui
Haut(e) -- | Bas -- ° F
--% Risque de précip.
Hier
Haut(e) -- | Bas -- ° F
Precip. -- pouce
Pression 29.96 pouce
Visibilité 10.0 Miles terrestres
Nuages Nuageux 7000 ft
Nuageux 12000 ft
Nuageux 20000 ft
indice de chaleur 76 ° F
Point de rosée 71 ° F
Humidité 86%
Précipitations 0.00 pouce
Profondeur de la couche neigeuse Non disponible.
6:31 AM 8:41 PM
Lune descendante, 32% visible
METAR KICT 281153Z 28005KT 10SM BKN070 BKN120 BKN200 24/21 A3001 RMK AO2 SLP144 CB SW-NW MOV S T02390211 10256 20228 53012
Pression 29.96 pouce
Visibilité 10.0 Miles terrestres
Nuages Nuageux 7000 ft
Nuageux 12000 ft
Nuageux 20000 ft
indice de chaleur 76 ° F
Point de rosée 71 ° F
Humidité 86%
Précipitations 0.00 pouce
Profondeur de la couche neigeuse Non disponible.
6:31 AM 8:41 PM
Lune descendante, 32% visible
METAR KICT 281153Z 28005KT 10SM BKN070 BKN120 BKN200 24/21 A3001 RMK AO2 SLP144 CB SW-NW MOV S T02390211 10256 20228 53012

10-Day Weather Forecast

Almanac

Astronomie

Jul. 28, 2016 Lever Coucher
Temps réel
Crépuscule civil
Crépuscule nautique
Crépuscule astronomique
Lune
Durée de lumière visible
Longueur du jour
Tomorrow will be .
, % of the Moon is Illuminated

Extrêmes aujourd'hui

State Highs State Lows

Community

WunderPhotos

Upload Photos

1,928,098 Photos téléchargées !

WunderBlog® & News

Nearby

Qualité de l'air

  Qualité de l'air Indice de la qualité de l'air Polluant
Not available.

Épaisseur de neige

Station Depth Altitude

Activité sismique

Ville Distance Mag. Time & Date
Minimum magnitude displayed is 2.5.

Températures des eaux côtières

Lieu Température

Stations

Stations météo à proximité

Emplacement de la station Température Refroidissement éolien Point de rosée Humidité Vent Precip. Alt. Mise à jour Type
                   

Watches & Warnings

There are currently no watches in effect.